Oriana — ZCDU9 — position and weather

sailwx.info

Track history (hours):
 
Tides and Currents Weather Stations Pressure Air Temp Water Temp Dewpoint Dewpoint Depression Visibility Wind Speed Wind Dir Waves Ship Positions

Oriana (Bermuda)

Last reported at 2018-Oct-20 01:00 UTC. Time now 2018-Oct-20 13:23 UTC.
Position N 37°30' E 007°12'.

Length 261 m; beam 32.2 m; draft 8.2 m.

Type: Ship. MMSI: 310529000.

Wind from 120 at 10 knots

Barometer 1017.9 mb
Air temperature 22.0 ° C
Visibility: greater than 10.8 NM
Dewpoint 18.2 ° C
Water temperature 23.0 ° C

Date/timePositionNaut miles runAvg speedWind from/ knotsBaromVisibWave heightAir tempDewpointWater temp
2018-Oct-20 01:00N 37°30' E 007°12'9519.1 120 / 101017.910.8 22.018.223.0
2018-Oct-19 20:00N 37°36' E 009°12'13121.8 030 / 81017.3 22.120.922.0
2018-Oct-19 14:00N 37°12' E 011°54'10019.9 110 / 71013.810.8 21.216.623.0
2018-Oct-19 08:58N 36°42' E 013°53'1020.2
2018-Oct-19 08:29N 36°39' E 014°04'920.1
2018-Oct-19 08:03N 36°36' E 014°15'120.3
2018-Oct-19 08:00N 36°36' E 014°16'1377123935.7
2018-Oct-19 08:00N 36°30' W 014°18'13872846.6 090 / 231013.010.8 20.017.623.0
2018-Oct-19 07:30N 36°32' E 014°28'919.7
2018-Oct-19 07:03N 36°28' E 014°38'119.9
2018-Oct-19 07:00N 36°28' E 014°39'11519.1
2018-Oct-19 01:00N 37°18' E 016°48'12621.1 070 / 221012.610.8 22.519.923.0
2018-Oct-18 19:00N 38°36' E 018°54'108 5.7 090 / 31015.210.8 21.517.523.0
2018-Oct-18 00:00N 40°24' E 019°06'7414.8 050 / 121016.310.8 20.516.022.0
2018-Oct-17 19:00N 41°36' E 018°42'129 6.5 320 / 51016.610.8 21.516.622.0
2018-Oct-16 23:00N 42°42' E 016°12'6120.2 120 / 111019.210.8 21.020.221.0
2018-Oct-16 20:00N 43°24' E 015°12'6222.3 090 / 101020.310.8 21.017.821.0
2018-Oct-16 17:12N 44°18' E 014°29'13 0.9
2018-Oct-16 02:26N 44°10' E 014°15'918.8
2018-Oct-16 01:56N 44°04' E 014°05'819.6
2018-Oct-16 01:30N 44°10' E 013°58'920.0
2018-Oct-16 01:03N 44°18' E 013°51'119.8
2018-Oct-16 01:00N 44°19' E 013°50'1020.0
2018-Oct-16 00:30N 44°27' E 013°43'919.9
2018-Oct-16 00:03N 44°35' E 013°36'119.8
2018-Oct-16 00:00N 44°35' E 013°35'6432.5
2018-Oct-16 00:00N 44°30' E 013°36'1530.9 080 / 161019.610.8 19.814.520.0
2018-Oct-15 23:30N 44°44' E 013°27'919.9
2018-Oct-15 23:03N 44°51' E 013°21'120.1
2018-Oct-15 23:00N 44°52' E 013°20'918.2
2018-Oct-15 22:30N 44°54' E 013°07'919.5
2018-Oct-15 22:03N 44°56' E 012°55'119.9
2018-Oct-15 22:00N 44°56' E 012°54'919.0
2018-Oct-15 21:30N 45°03' E 012°44'919.6
2018-Oct-15 21:03N 45°09' E 012°36'119.7
2018-Oct-15 21:00N 45°10' E 012°35'918.5
2018-Oct-15 20:30N 45°19' E 012°30'614.5
2018-Oct-15 20:03N 45°25' E 012°27'0 7.9
2018-Oct-15 20:00N 45°25' E 012°27'3 5.8
2018-Oct-15 19:31N 45°25' E 012°22'2 5.1
2018-Oct-15 19:03N 45°26' E 012°19'0 5.7
2018-Oct-15 19:00N 45°26' E 012°19'0 0.8
2018-Oct-15 18:30N 45°26' E 012°19'0 0.0
2018-Oct-15 18:03N 45°26' E 012°19'0 0.0
2018-Oct-15 17:54N 45°26' E 012°19'0 0.0
2018-Oct-15 17:30N 45°26' E 012°19'0 0.0
2018-Oct-15 16:57N 45°26' E 012°19'0 0.0
2018-Oct-15 16:27N 45°26' E 012°19'0 0.0
2018-Oct-15 16:00N 45°26' E 012°19'0 0.0
2018-Oct-15 15:27N 45°26' E 012°19'0 0.0
2018-Oct-15 15:00N 45°26' E 012°19'0 0.0
2018-Oct-15 14:29N 45°26' E 012°19'0 0.0
2018-Oct-15 14:00N 45°26' E 012°19'0 0.0
2018-Oct-15 13:21N 45°26' E 012°19'0 0.0
2018-Oct-15 13:03N 45°26' E 012°19'0 0.0
2018-Oct-15 13:00N 45°26' E 012°19'0 0.0
2018-Oct-15 12:27N 45°26' E 012°19'0 0.0
2018-Oct-15 11:57N 45°26' E 012°19'0 0.0
2018-Oct-15 11:23N 45°26' E 012°19'0 0.0
2018-Oct-15 10:59N 45°26' E 012°19'0 0.0
2018-Oct-15 10:29N 45°26' E 012°19'0 0.0
2018-Oct-15 10:03N 45°26' E 012°19'0 0.0
2018-Oct-15 10:00N 45°26' E 012°19'0 0.0
2018-Oct-15 09:28N 45°26' E 012°19'0 0.0
2018-Oct-15 09:01N 45°26' E 012°19'0 0.0
2018-Oct-15 08:58N 45°26' E 012°19'0 0.0
2018-Oct-15 08:28N 45°26' E 012°19'0 0.0
2018-Oct-15 08:01N 45°26' E 012°19'0 0.0
2018-Oct-15 07:55N 45°26' E 012°19'0 0.0
2018-Oct-15 07:25N 45°26' E 012°19'0 0.0
2018-Oct-15 06:58N 45°26' E 012°19'0 0.0
2018-Oct-15 06:30N 45°26' E 012°19'0 0.0
2018-Oct-15 06:03N 45°26' E 012°19'0 0.0
2018-Oct-15 05:57N 45°26' E 012°19'0 0.0
2018-Oct-15 05:24N 45°26' E 012°19'0 0.2
2018-Oct-15 05:03N 45°26' E 012°19'0 1.0
2018-Oct-15 05:00N 45°26' E 012°19'1 2.6
2018-Oct-15 04:30N 45°26' E 012°20'2 4.9
2018-Oct-15 04:03N 45°26' E 012°24'0 8.2
2018-Oct-15 04:00N 45°26' E 012°24'4 8.0
2018-Oct-15 03:30N 45°24' E 012°29'511.2
2018-Oct-15 03:03N 45°19' E 012°32'115.9
2018-Oct-15 03:00N 45°19' E 012°32'510.3
2018-Oct-15 02:30N 45°14' E 012°36'511.0
2018-Oct-15 02:03N 45°12' E 012°42'111.0
2018-Oct-15 02:00N 45°11' E 012°42'611.3
2018-Oct-15 01:30N 45°07' E 012°49'511.7
2018-Oct-15 01:03N 45°03' E 012°52'111.6
2018-Oct-15 01:00N 45°02' E 012°53'611.4
2018-Oct-15 00:30N 44°57' E 012°56'511.3
2018-Oct-15 00:03N 44°53' E 012°59'111.6
2018-Oct-15 00:00N 44°52' E 012°59'611.4
2018-Oct-14 23:30N 44°47' E 013°00'511.9
2018-Oct-14 23:03N 44°41' E 013°03'111.7
2018-Oct-14 23:00N 44°41' E 013°03'2194.4
2018-Oct-14 23:00N 44°42' E 013°00'816.2 050 / 71018.810.8 20.016.721.0
2018-Oct-14 22:30N 44°35' E 013°06'511.6
2018-Oct-14 22:03N 44°30' E 013°08'111.7
2018-Oct-14 22:00N 44°30' E 013°09'611.5
2018-Oct-14 21:30N 44°24' E 013°11'511.7
2018-Oct-14 21:03N 44°19' E 013°14'111.9
2018-Oct-14 20:56N 44°18' E 013°15'7 7.0
2018-Oct-14 20:00N 44°12' E 013°18'1033.8 180 / 51019.410.8 20.016.720.0
2018-Oct-14 19:43N 44°09' E 013°31'1212.0
2018-Oct-14 18:43N 44°02' E 013°44'1211.9
2018-Oct-14 17:43N 43°55' E 013°57'311.8
2018-Oct-14 17:30N 43°53' E 013°60'611.6
2018-Oct-14 17:00N 43°50' E 014°07'611.7
2018-Oct-14 16:29N 43°48' E 014°14'511.5
2018-Oct-14 16:03N 43°45' E 014°20'111.8
2018-Oct-14 16:00N 43°45' E 014°20'3110.3
2018-Oct-14 13:00N 43°18' E 014°42'6813.6 090 / 41019.310.8 20.016.421.0
2018-Oct-14 08:00N 42°30' E 015°48'7210.3 210 / 41021.010.8 20.015.821.0
2018-Oct-14 01:00N 41°42' E 017°00'38 9.4 330 / 81021.310.8 19.917.121.0
2018-Oct-13 21:00N 41°54' E 017°48'46 2.4 360 / 141021.810.8 21.017.821.0
2018-Oct-13 02:00N 41°12' E 018°12'8717.4 060 / 171020.910.8 22.515.921.0
2018-Oct-12 21:00N 39°48' E 018°42'102 8.5 360 / 191022.010.8 21.515.722.0
2018-Oct-12 09:00N 39°36' E 016°30'61 6.7 250 / 51023.710.8 20.518.123.0
2018-Oct-12 00:00N 38°48' E 017°18'6115.2 110 / 31021.110.8 21.818.023.0
2018-Oct-11 20:00N 38°00' E 016°30'2227.5 220 / 181021.3 5.4 22.516.824.0
2018-Oct-11 19:10N 37°43' E 016°12'218.1
2018-Oct-11 19:03N 37°42' E 016°09'118.0
2018-Oct-11 19:00N 37°42' E 016°08'917.9
2018-Oct-11 18:30N 37°38' E 015°58'1018.0
2018-Oct-11 17:58N 37°34' E 015°47'817.8
2018-Oct-11 17:30N 37°33' E 015°37'1018.1
2018-Oct-11 16:58N 37°30' E 015°25'14 1.2
2018-Oct-11 04:37N 37°15' E 015°27'5314.9
2018-Oct-11 01:05N 36°24' E 015°11'9104.9
2018-Oct-11 01:00N 36°24' E 015°00'1311.2 090 / 81020.310.8 22.616.825.0
2018-Oct-10 23:50N 36°28' E 014°45'617.5
2018-Oct-10 23:30N 36°29' E 014°37'817.3
2018-Oct-10 23:03N 36°30' E 014°28'117.1
2018-Oct-10 23:00N 36°31' E 014°27'817.0
2018-Oct-10 22:30N 36°33' E 014°17'817.6
2018-Oct-10 22:03N 36°36' E 014°08'118.2
2018-Oct-10 22:01N 36°36' E 014°07'918.4
2018-Oct-10 21:30N 36°39' E 013°56'818.0
2018-Oct-10 21:03N 36°42' E 013°46'117.8
2018-Oct-10 21:01N 36°42' E 013°45'917.7
2018-Oct-10 20:29N 36°45' E 013°34'33717.3
2018-Oct-10 01:00N 37°30' E 006°36'   160 / 211011.810.8 24.519.724.0
Track history (hours):
 
Tides and Currents Weather Stations Pressure Air Temp Water Temp Dewpoint Dewpoint Depression Visibility Wind Speed Wind Dir Waves Ship Positions

Oriana (Bermuda)

Last reported at 2018-Oct-20 01:00 UTC. Time now 2018-Oct-20 13:23 UTC.
Position N 37°30' E 007°12'.

Length 261 m; beam 32.2 m; draft 8.2 m.

Type: Ship. MMSI: 310529000.

Wind from 120 at 10 knots

Barometer 1017.9 mb
Air temperature 22.0 ° C
Visibility: greater than 10.8 NM
Dewpoint 18.2 ° C
Water temperature 23.0 ° C

Date/timePositionNaut miles runAvg speedWind from/ knotsBaromVisibWave heightAir tempDewpointWater temp
2018-Oct-20 01:00N 37°30' E 007°12'9519.1 120 / 101017.910.8 22.018.223.0
2018-Oct-19 20:00N 37°36' E 009°12'13121.8 030 / 81017.3 22.120.922.0
2018-Oct-19 14:00N 37°12' E 011°54'10019.9 110 / 71013.810.8 21.216.623.0
2018-Oct-19 08:58N 36°42' E 013°53'1020.2
2018-Oct-19 08:29N 36°39' E 014°04'920.1
2018-Oct-19 08:03N 36°36' E 014°15'120.3
2018-Oct-19 08:00N 36°36' E 014°16'1377123935.7
2018-Oct-19 08:00N 36°30' W 014°18'13872846.6 090 / 231013.010.8 20.017.623.0
2018-Oct-19 07:30N 36°32' E 014°28'919.7
2018-Oct-19 07:03N 36°28' E 014°38'119.9
2018-Oct-19 07:00N 36°28' E 014°39'11519.1
2018-Oct-19 01:00N 37°18' E 016°48'12621.1 070 / 221012.610.8 22.519.923.0
2018-Oct-18 19:00N 38°36' E 018°54'108 5.7 090 / 31015.210.8 21.517.523.0
2018-Oct-18 00:00N 40°24' E 019°06'7414.8 050 / 121016.310.8 20.516.022.0
2018-Oct-17 19:00N 41°36' E 018°42'129 6.5 320 / 51016.610.8 21.516.622.0
2018-Oct-16 23:00N 42°42' E 016°12'6120.2 120 / 111019.210.8 21.020.221.0
2018-Oct-16 20:00N 43°24' E 015°12'6222.3 090 / 101020.310.8 21.017.821.0
2018-Oct-16 17:12N 44°18' E 014°29'13 0.9
2018-Oct-16 02:26N 44°10' E 014°15'918.8
2018-Oct-16 01:56N 44°04' E 014°05'819.6
2018-Oct-16 01:30N 44°10' E 013°58'920.0
2018-Oct-16 01:03N 44°18' E 013°51'119.8
2018-Oct-16 01:00N 44°19' E 013°50'1020.0
2018-Oct-16 00:30N 44°27' E 013°43'919.9
2018-Oct-16 00:03N 44°35' E 013°36'119.8
2018-Oct-16 00:00N 44°35' E 013°35'6432.5
2018-Oct-16 00:00N 44°30' E 013°36'1530.9 080 / 161019.610.8 19.814.520.0
2018-Oct-15 23:30N 44°44' E 013°27'919.9
2018-Oct-15 23:03N 44°51' E 013°21'120.1
2018-Oct-15 23:00N 44°52' E 013°20'918.2
2018-Oct-15 22:30N 44°54' E 013°07'919.5
2018-Oct-15 22:03N 44°56' E 012°55'119.9
2018-Oct-15 22:00N 44°56' E 012°54'919.0
2018-Oct-15 21:30N 45°03' E 012°44'919.6
2018-Oct-15 21:03N 45°09' E 012°36'119.7
2018-Oct-15 21:00N 45°10' E 012°35'918.5
2018-Oct-15 20:30N 45°19' E 012°30'614.5
2018-Oct-15 20:03N 45°25' E 012°27'0 7.9
2018-Oct-15 20:00N 45°25' E 012°27'3 5.8
2018-Oct-15 19:31N 45°25' E 012°22'2 5.1
2018-Oct-15 19:03N 45°26' E 012°19'0 5.7
2018-Oct-15 19:00N 45°26' E 012°19'0 0.8
2018-Oct-15 18:30N 45°26' E 012°19'0 0.0
2018-Oct-15 18:03N 45°26' E 012°19'0 0.0
2018-Oct-15 17:54N 45°26' E 012°19'0 0.0
2018-Oct-15 17:30N 45°26' E 012°19'0 0.0
2018-Oct-15 16:57N 45°26' E 012°19'0 0.0
2018-Oct-15 16:27N 45°26' E 012°19'0 0.0
2018-Oct-15 16:00N 45°26' E 012°19'0 0.0
2018-Oct-15 15:27N 45°26' E 012°19'0 0.0
2018-Oct-15 15:00N 45°26' E 012°19'0 0.0
2018-Oct-15 14:29N 45°26' E 012°19'0 0.0
2018-Oct-15 14:00N 45°26' E 012°19'0 0.0
2018-Oct-15 13:21N 45°26' E 012°19'0 0.0
2018-Oct-15 13:03N 45°26' E 012°19'0 0.0
2018-Oct-15 13:00N 45°26' E 012°19'0 0.0
2018-Oct-15 12:27N 45°26' E 012°19'0 0.0
2018-Oct-15 11:57N 45°26' E 012°19'0 0.0
2018-Oct-15 11:23N 45°26' E 012°19'0 0.0
2018-Oct-15 10:59N 45°26' E 012°19'0 0.0
2018-Oct-15 10:29N 45°26' E 012°19'0 0.0
2018-Oct-15 10:03N 45°26' E 012°19'0 0.0
2018-Oct-15 10:00N 45°26' E 012°19'0 0.0
2018-Oct-15 09:28N 45°26' E 012°19'0 0.0
2018-Oct-15 09:01N 45°26' E 012°19'0 0.0
2018-Oct-15 08:58N 45°26' E 012°19'0 0.0
2018-Oct-15 08:28N 45°26' E 012°19'0 0.0
2018-Oct-15 08:01N 45°26' E 012°19'0 0.0
2018-Oct-15 07:55N 45°26' E 012°19'0 0.0
2018-Oct-15 07:25N 45°26' E 012°19'0 0.0
2018-Oct-15 06:58N 45°26' E 012°19'0 0.0
2018-Oct-15 06:30N 45°26' E 012°19'0 0.0
2018-Oct-15 06:03N 45°26' E 012°19'0 0.0
2018-Oct-15 05:57N 45°26' E 012°19'0 0.0
2018-Oct-15 05:24N 45°26' E 012°19'0 0.2
2018-Oct-15 05:03N 45°26' E 012°19'0 1.0
2018-Oct-15 05:00N 45°26' E 012°19'1 2.6
2018-Oct-15 04:30N 45°26' E 012°20'2 4.9
2018-Oct-15 04:03N 45°26' E 012°24'0 8.2
2018-Oct-15 04:00N 45°26' E 012°24'4 8.0
2018-Oct-15 03:30N 45°24' E 012°29'511.2
2018-Oct-15 03:03N 45°19' E 012°32'115.9
2018-Oct-15 03:00N 45°19' E 012°32'510.3
2018-Oct-15 02:30N 45°14' E 012°36'511.0
2018-Oct-15 02:03N 45°12' E 012°42'111.0
2018-Oct-15 02:00N 45°11' E 012°42'611.3
2018-Oct-15 01:30N 45°07' E 012°49'511.7
2018-Oct-15 01:03N 45°03' E 012°52'111.6
2018-Oct-15 01:00N 45°02' E 012°53'611.4
2018-Oct-15 00:30N 44°57' E 012°56'511.3
2018-Oct-15 00:03N 44°53' E 012°59'111.6
2018-Oct-15 00:00N 44°52' E 012°59'611.4
2018-Oct-14 23:30N 44°47' E 013°00'511.9
2018-Oct-14 23:03N 44°41' E 013°03'111.7
2018-Oct-14 23:00N 44°41' E 013°03'2194.4
2018-Oct-14 23:00N 44°42' E 013°00'816.2 050 / 71018.810.8 20.016.721.0
2018-Oct-14 22:30N 44°35' E 013°06'511.6
2018-Oct-14 22:03N 44°30' E 013°08'111.7
2018-Oct-14 22:00N 44°30' E 013°09'611.5
2018-Oct-14 21:30N 44°24' E 013°11'511.7
2018-Oct-14 21:03N 44°19' E 013°14'111.9
2018-Oct-14 20:56N 44°18' E 013°15'7 7.0
2018-Oct-14 20:00N 44°12' E 013°18'1033.8 180 / 51019.410.8 20.016.720.0
2018-Oct-14 19:43N 44°09' E 013°31'1212.0
2018-Oct-14 18:43N 44°02' E 013°44'1211.9
2018-Oct-14 17:43N 43°55' E 013°57'311.8
2018-Oct-14 17:30N 43°53' E 013°60'611.6
2018-Oct-14 17:00N 43°50' E 014°07'611.7
2018-Oct-14 16:29N 43°48' E 014°14'511.5
2018-Oct-14 16:03N 43°45' E 014°20'111.8
2018-Oct-14 16:00N 43°45' E 014°20'3110.3
2018-Oct-14 13:00N 43°18' E 014°42'6813.6 090 / 41019.310.8 20.016.421.0
2018-Oct-14 08:00N 42°30' E 015°48'7210.3 210 / 41021.010.8 20.015.821.0
2018-Oct-14 01:00N 41°42' E 017°00'38 9.4 330 / 81021.310.8 19.917.121.0
2018-Oct-13 21:00N 41°54' E 017°48'46 2.4 360 / 141021.810.8 21.017.821.0
2018-Oct-13 02:00N 41°12' E 018°12'8717.4 060 / 171020.910.8 22.515.921.0
2018-Oct-12 21:00N 39°48' E 018°42'102 8.5 360 / 191022.010.8 21.515.722.0
2018-Oct-12 09:00N 39°36' E 016°30'61 6.7 250 / 51023.710.8 20.518.123.0
2018-Oct-12 00:00N 38°48' E 017°18'6115.2 110 / 31021.110.8 21.818.023.0
2018-Oct-11 20:00N 38°00' E 016°30'2227.5 220 / 181021.3 5.4 22.516.824.0
2018-Oct-11 19:10N 37°43' E 016°12'218.1
2018-Oct-11 19:03N 37°42' E 016°09'118.0
2018-Oct-11 19:00N 37°42' E 016°08'917.9
2018-Oct-11 18:30N 37°38' E 015°58'1018.0
2018-Oct-11 17:58N 37°34' E 015°47'817.8
2018-Oct-11 17:30N 37°33' E 015°37'1018.1
2018-Oct-11 16:58N 37°30' E 015°25'14 1.2
2018-Oct-11 04:37N 37°15' E 015°27'5314.9
2018-Oct-11 01:05N 36°24' E 015°11'9104.9
2018-Oct-11 01:00N 36°24' E 015°00'1311.2 090 / 81020.310.8 22.616.825.0
2018-Oct-10 23:50N 36°28' E 014°45'617.5
2018-Oct-10 23:30N 36°29' E 014°37'817.3
2018-Oct-10 23:03N 36°30' E 014°28'117.1
2018-Oct-10 23:00N 36°31' E 014°27'817.0
2018-Oct-10 22:30N 36°33' E 014°17'817.6
2018-Oct-10 22:03N 36°36' E 014°08'118.2
2018-Oct-10 22:01N 36°36' E 014°07'918.4
2018-Oct-10 21:30N 36°39' E 013°56'818.0
2018-Oct-10 21:03N 36°42' E 013°46'117.8
2018-Oct-10 21:01N 36°42' E 013°45'917.7
2018-Oct-10 20:29N 36°45' E 013°34'33717.3
2018-Oct-10 01:00N 37°30' E 006°36'   160 / 211011.810.8 24.519.724.0

Dump ship's entire track history